| time (UTC) | temp F | wind direction | speed MPH | gust MPH | rain 1hr in | rain 24hr in | rain mn in | humidity % | barometer mb |
| 20260507193027 | 61 | 347 | 3.0 | 9.0 | 0.00 | 0.17 | 0.00 | 36 | 1002.4 |
| 20260507192022 | 61 | 339 | 2.0 | 10.0 | 0.00 | 0.17 | 0.00 | 37 | 1002.5 |
| 20260507191018 | 58 | 6 | 3.0 | 10.0 | 0.00 | 0.18 | 0.00 | 41 | 1002.5 |
| 20260507190034 | 59 | 357 | 4.0 | 11.0 | 0.00 | 0.18 | 0.00 | 37 | 1002.7 |
| 20260507185050 | 59 | 354 | 3.0 | 8.0 | 0.00 | 0.19 | 0.00 | 38 | 1002.8 |
| 20260507184026 | 61 | 215 | 3.0 | 13.0 | 0.00 | 0.19 | 0.00 | 35 | 1003.0 |
| 20260507183019 | 59 | 351 | 3.0 | 8.0 | 0.00 | 0.20 | 0.00 | 39 | 1003.1 |
| 20260507182035 | 58 | 349 | 4.0 | 9.0 | 0.00 | 0.21 | 0.00 | 38 | 1003.0 |
| 20260507181031 | 59 | 341 | 2.0 | 6.0 | 0.00 | 0.22 | 0.00 | 40 | 1003.1 |
| 20260507180025 | 58 | 345 | 2.0 | 6.0 | 0.00 | 0.22 | 0.00 | 41 | 1003.2 |
| 20260507175020 | 60 | 25 | 4.0 | 9.0 | 0.00 | 0.24 | 0.00 | 40 | 1003.1 |
| 20260507174016 | 61 | 314 | 3.0 | 7.0 | 0.00 | 0.24 | 0.00 | 41 | 1003.0 |
| 20260507173032 | 59 | 351 | 3.0 | 7.0 | 0.00 | 0.26 | 0.00 | 45 | 1003.0 |
| 20260507172028 | 56 | 4 | 4.0 | 9.0 | 0.00 | 0.26 | 0.00 | 42 | 1003.2 |
| 20260507171023 | 59 | 5 | 3.0 | 10.0 | 0.00 | 0.26 | 0.00 | 41 | 1003.5 |
| 20260507170018 | 58 | 6 | 3.0 | 9.0 | 0.00 | 0.27 | 0.00 | 46 | 1003.6 |
| 20260507165035 | 60 | 6 | 4.0 | 8.0 | 0.00 | 0.27 | 0.00 | 43 | 1003.7 |
| 20260507164030 | 59 | 4 | 2.0 | 7.0 | 0.00 | 0.27 | 0.00 | 42 | 1003.6 |
| 20260507163045 | 59 | 335 | 2.0 | 9.0 | 0.00 | 0.27 | 0.00 | 43 | 1003.9 |
| 20260507162020 | 59 | 330 | 3.0 | 7.0 | 0.00 | 0.27 | 0.00 | 47 | 1004.0 |
| 20260507161016 | 59 | 312 | 3.0 | 10.0 | 0.00 | 0.27 | 0.00 | 42 | 1003.9 |
| 20260507160032 | 59 | 326 | 3.0 | 8.0 | 0.00 | 0.27 | 0.00 | 47 | 1004.2 |
| 20260507155054 | 58 | 343 | 4.0 | 14.0 | 0.00 | 0.27 | 0.00 | 45 | 1004.1 |
| 20260507154021 | 57 | 348 | 2.0 | 8.0 | 0.00 | 0.27 | 0.00 | 47 | 1004.1 |
| 20260507153017 | 57 | 351 | 4.0 | 9.0 | 0.00 | 0.27 | 0.00 | 47 | 1004.1 |
| 20260507152033 | 57 | 344 | 4.0 | 9.0 | 0.00 | 0.27 | 0.00 | 51 | 1004.4 |
| 20260507151029 | 57 | 1 | 4.0 | 9.0 | 0.00 | 0.27 | 0.00 | 53 | 1004.4 |
| 20260507150023 | 56 | 354 | 3.0 | 8.0 | 0.00 | 0.27 | 0.00 | 53 | 1004.5 |
| 20260507145039 | 57 | 297 | 4.0 | 8.0 | 0.00 | 0.27 | 0.00 | 55 | 1004.4 |
| 20260507144102 | 56 | 297 | 2.0 | 8.0 | 0.00 | 0.27 | 0.00 | 58 | 1004.2 |
| 20260507143017 | 56 | 290 | 2.0 | 7.0 | 0.00 | 0.27 | 0.00 | 61 | 1004.2 |
| 20260507142053 | 54 | 354 | 2.0 | 6.0 | 0.00 | 0.27 | 0.00 | 73 | 1004.3 |
| 20260507141029 | 52 | 349 | 1.0 | 3.0 | 0.00 | 0.27 | 0.00 | 67 | 1004.2 |
| 20260507140024 | 55 | 352 | 3.0 | 9.0 | 0.00 | 0.27 | 0.00 | 66 | 1004.1 |
| 20260507135039 | 55 | 179 | 2.0 | 6.0 | 0.00 | 0.27 | 0.00 | 68 | 1004.1 |
| 20260507134056 | 53 | 8 | 2.0 | 4.0 | 0.00 | 0.27 | 0.00 | 74 | 1004.2 |
| 20260507133051 | 51 | 249 | 2.0 | 6.0 | 0.00 | 0.27 | 0.00 | 73 | 1004.4 |
| 20260507132027 | 52 | 27 | 3.0 | 9.0 | 0.00 | 0.27 | 0.00 | 74 | 1004.7 |
| 20260507131021 | 52 | 337 | 0.0 | 2.0 | 0.00 | 0.27 | 0.00 | 73 | 1004.5 |
| 20260507130017 | 52 | 13 | 2.0 | 6.0 | 0.00 | 0.27 | 0.00 | 74 | 1004.7 |
| 20260507125033 | 52 | 269 | 1.0 | 3.0 | 0.00 | 0.27 | 0.00 | 74 | 1004.6 |
| 20260507124029 | 51 | 18 | 2.0 | 6.0 | 0.00 | 0.27 | 0.00 | 76 | 1004.5 |
| 20260507123045 | 50 | 1 | 1.0 | 3.0 | 0.00 | 0.27 | 0.00 | 79 | 1004.4 |
| 20260507122019 | 50 | 14 | 2.0 | 3.0 | 0.00 | 0.27 | 0.00 | 80 | 1004.5 |
| 20260507121015 | 49 | 12 | 2.0 | 4.0 | 0.00 | 0.27 | 0.00 | 82 | 1004.5 |
| 20260507120052 | 48 | 352 | 0.0 | 1.0 | 0.00 | 0.27 | 0.00 | 83 | 1004.7 |
| 20260507115047 | 48 | 7 | 1.0 | 3.0 | 0.00 | 0.27 | 0.00 | 86 | 1004.7 |
| 20260507114022 | 47 | 15 | 1.0 | 3.0 | 0.00 | 0.27 | 0.00 | 87 | 1004.6 |
| 20260507113017 | 46 | 23 | 2.0 | 4.0 | 0.00 | 0.27 | 0.00 | 92 | 1004.6 |
| 20260507112033 | 45 | 31 | 1.0 | 2.0 | 0.00 | 0.27 | 0.00 | 98 | 1004.5 |
| 20260507111030 | 44 | 96 | 0.0 | 1.0 | 0.00 | 0.27 | 0.00 | 98 | 1004.6 |
| 20260507110025 | 43 | 0.0 | 0.0 | 0.00 | 0.27 | 0.27 | 98 | 1004.5 | |
| 20260507105100 | 43 | 0.0 | 0.0 | 0.00 | 0.27 | 0.27 | 98 | 1004.2 | |
| 20260507104036 | 42 | 95 | 0.0 | 1.0 | 0.00 | 0.27 | 0.27 | 97 | 1004.2 |
| 20260507103052 | 42 | 95 | 0.0 | 1.0 | 0.00 | 0.27 | 0.27 | 97 | 1004.2 |
| 20260507102028 | 42 | 0.0 | 0.0 | 0.00 | 0.27 | 0.27 | 96 | 1004.2 | |
| 20260507101022 | 43 | 0.0 | 0.0 | 0.00 | 0.27 | 0.27 | 96 | 1004.1 | |
| 20260507100017 | 43 | 334 | 0.0 | 1.0 | 0.00 | 0.27 | 0.27 | 95 | 1004.4 |
| 20260507095034 | 44 | 360 | 1.0 | 2.0 | 0.00 | 0.27 | 0.27 | 95 | 1004.1 |
| 20260507094029 | 44 | 46 | 0.0 | 1.0 | 0.00 | 0.27 | 0.27 | 95 | 1004.4 |
| 20260507093025 | 44 | 277 | 0.0 | 1.0 | 0.00 | 0.27 | 0.27 | 96 | 1004.3 |
| 20260507092040 | 45 | 12 | 0.0 | 1.0 | 0.00 | 0.27 | 0.27 | 96 | 1004.5 |
| 20260507091016 | 45 | 0.0 | 0.0 | 0.00 | 0.27 | 0.27 | 96 | 1004.7 | |
| 20260507090032 | 45 | 0.0 | 0.0 | 0.00 | 0.27 | 0.27 | 96 | 1004.7 | |
| 20260507085048 | 45 | 271 | 0.0 | 2.0 | 0.00 | 0.27 | 0.27 | 97 | 1004.2 |
| 20260507084023 | 45 | 23 | 0.0 | 1.0 | 0.00 | 0.27 | 0.27 | 97 | 1004.1 |
| 20260507083019 | 45 | 0.0 | 0.0 | 0.00 | 0.27 | 0.27 | 97 | 1004.2 | |
| 20260507082035 | 45 | 0.0 | 0.0 | 0.00 | 0.27 | 0.27 | 98 | 1004.3 | |
| 20260507081031 | 45 | 0.0 | 0.0 | 0.00 | 0.27 | 0.27 | 98 | 1004.0 | |
| 20260507080026 | 45 | 45 | 0.0 | 1.0 | 0.00 | 0.27 | 0.27 | 98 | 1004.0 |
| 20260507075020 | 45 | 72 | 0.0 | 1.0 | 0.00 | 0.27 | 0.27 | 98 | 1004.3 |
| 20260507074016 | 45 | 0.0 | 0.0 | 0.00 | 0.27 | 0.27 | 98 | 1004.0 | |
| 20260507073032 | 45 | 0.0 | 0.0 | 0.00 | 0.27 | 0.27 | 98 | 1003.9 | |
| 20260507072028 | 45 | 0.0 | 0.0 | 0.00 | 0.27 | 0.27 | 97 | 1003.7 | |
| 20260507071023 | 45 | 123 | 0.0 | 2.0 | 0.00 | 0.27 | 0.27 | 97 | 1003.6 |
| 20260507070018 | 46 | 0.0 | 0.0 | 0.00 | 0.27 | 0.27 | 97 | 1003.6 | |
| 20260507065034 | 46 | 0.0 | 0.0 | 0.00 | 0.27 | 0.27 | 97 | 1003.6 | |
| 20260507064110 | 46 | 282 | 0.0 | 1.0 | 0.00 | 0.27 | 0.27 | 97 | 1003.6 |
| 20260507063026 | 47 | 0.0 | 0.0 | 0.00 | 0.27 | 0.27 | 97 | 1003.9 | |
| 20260507062022 | 47 | 214 | 0.0 | 1.0 | 0.00 | 0.27 | 0.27 | 96 | 1004.0 |
| 20260507061017 | 47 | 0.0 | 0.0 | 0.00 | 0.27 | 0.27 | 96 | 1004.1 | |
| 20260507060053 | 47 | 25 | 0.0 | 2.0 | 0.00 | 0.27 | 0.27 | 96 | 1003.7 |
| 20260507055029 | 47 | 29 | 0.0 | 1.0 | 0.00 | 0.27 | 0.27 | 96 | 1004.0 |
| 20260507054023 | 47 | 248 | 0.0 | 2.0 | 0.00 | 0.27 | 0.27 | 96 | 1004.0 |
| 20260507053059 | 47 | 253 | 0.0 | 2.0 | 0.00 | 0.27 | 0.27 | 95 | 1004.1 |
| 20260507052035 | 47 | 0.0 | 0.0 | 0.00 | 0.27 | 0.27 | 95 | 1004.0 | |
| 20260507051031 | 47 | 0.0 | 0.0 | 0.00 | 0.27 | 0.27 | 94 | 1003.5 | |
| 20260507050046 | 47 | 25 | 0.0 | 3.0 | 0.00 | 0.27 | 0.27 | 94 | 1003.6 |
| 20260507045021 | 47 | 34 | 1.0 | 3.0 | 0.00 | 0.27 | 0.27 | 94 | 1003.7 |
| 20260507044058 | 48 | 0.0 | 0.0 | 0.00 | 0.27 | 0.27 | 94 | 1003.8 | |
| 20260507043033 | 48 | 18 | 1.0 | 4.0 | 0.00 | 0.27 | 0.27 | 94 | 1003.5 |
| 20260507042049 | 48 | 16 | 1.0 | 4.0 | 0.00 | 0.27 | 0.27 | 94 | 1003.9 |
| 20260507041024 | 48 | 299 | 1.0 | 6.0 | 0.00 | 0.27 | 0.27 | 95 | 1003.8 |
| 20260507040021 | 48 | 17 | 1.0 | 3.0 | 0.00 | 0.27 | 0.27 | 96 | 1003.8 |
| 20260507035016 | 49 | 11 | 1.0 | 2.0 | 0.01 | 0.27 | 0.27 | 96 | 1003.7 |
| 20260507034032 | 49 | 8 | 1.0 | 3.0 | 0.02 | 0.27 | 0.27 | 97 | 1003.6 |
| 20260507033027 | 49 | 343 | 1.0 | 2.0 | 0.03 | 0.27 | 0.27 | 97 | 1003.5 |
| 20260507032022 | 50 | 27 | 1.0 | 6.0 | 0.03 | 0.27 | 0.27 | 97 | 1003.5 |
| 20260507031019 | 50 | 10 | 0.0 | 2.0 | 0.03 | 0.27 | 0.27 | 97 | 1003.6 |
| 20260507030034 | 50 | 37 | 1.0 | 2.0 | 0.03 | 0.27 | 0.27 | 96 | 1003.6 |
| 20260507025030 | 51 | 18 | 1.0 | 3.0 | 0.02 | 0.26 | 0.26 | 96 | 1003.5 |
| 20260507024026 | 51 | 16 | 1.0 | 3.0 | 0.01 | 0.24 | 0.24 | 95 | 1003.4 |
| 20260507023040 | 51 | 2 | 2.0 | 6.0 | 0.01 | 0.24 | 0.24 | 95 | 1003.5 |
| 20260507022016 | 52 | 333 | 3.0 | 9.0 | 0.02 | 0.24 | 0.24 | 96 | 1003.2 |
| 20260507021032 | 52 | 353 | 2.0 | 3.0 | 0.02 | 0.24 | 0.24 | 96 | 1003.1 |
| 20260507020027 | 53 | 14 | 2.0 | 8.0 | 0.02 | 0.24 | 0.24 | 96 | 1002.8 |
| 20260507015022 | 54 | 352 | 2.0 | 3.0 | 0.06 | 0.23 | 0.23 | 97 | 1002.5 |
| 20260507014019 | 55 | 16 | 1.0 | 2.0 | 0.08 | 0.23 | 0.23 | 97 | 1002.4 |
| 20260507013035 | 55 | 47 | 0.0 | 1.0 | 0.07 | 0.23 | 0.23 | 96 | 1002.2 |
| 20260507012031 | 55 | 347 | 1.0 | 4.0 | 0.07 | 0.22 | 0.22 | 96 | 1002.3 |
| 20260507011046 | 56 | 359 | 2.0 | 4.0 | 0.07 | 0.22 | 0.22 | 96 | 1002.0 |
| 20260507010021 | 57 | 320 | 2.0 | 6.0 | 0.06 | 0.22 | 0.22 | 95 | 1002.0 |
| 20260507005016 | 59 | 352 | 3.0 | 9.0 | 0.02 | 0.18 | 0.18 | 95 | 1001.9 |
| 20260507004032 | 59 | 214 | 0.0 | 1.0 | 0.00 | 0.15 | 0.15 | 94 | 1001.3 |
| 20260507003048 | 60 | 215 | 1.0 | 2.0 | 0.00 | 0.15 | 0.15 | 94 | 1001.0 |
| 20260507002022 | 60 | 120 | 0.0 | 1.0 | 0.00 | 0.15 | 0.15 | 93 | 1001.0 |
| 20260507001018 | 60 | 0.0 | 0.0 | 0.00 | 0.15 | 0.15 | 93 | 1001.1 | |
| 20260507000034 | 60 | 0.0 | 0.0 | 0.00 | 0.16 | 0.15 | 93 | 1001.0 | |
| 20260506235031 | 60 | 0.0 | 0.0 | 0.00 | 0.16 | 0.15 | 93 | 1000.7 | |
| 20260506234026 | 60 | 0.0 | 0.0 | 0.00 | 0.16 | 0.15 | 92 | 1000.7 | |
| 20260506233020 | 60 | 132 | 0.0 | 2.0 | 0.00 | 0.16 | 0.15 | 92 | 1000.8 |
| 20260506232016 | 60 | 149 | 0.0 | 2.0 | 0.00 | 0.16 | 0.15 | 92 | 1000.8 |
| 20260506231033 | 60 | 144 | 1.0 | 3.0 | 0.00 | 0.16 | 0.15 | 92 | 1001.0 |
| 20260506230028 | 60 | 169 | 1.0 | 3.0 | 0.00 | 0.16 | 0.15 | 91 | 1000.9 |
| 20260506225022 | 60 | 185 | 1.0 | 3.0 | 0.00 | 0.16 | 0.15 | 91 | 1000.9 |
| 20260506224018 | 61 | 159 | 2.0 | 6.0 | 0.00 | 0.16 | 0.15 | 91 | 1000.9 |
| 20260506223054 | 61 | 170 | 2.0 | 6.0 | 0.00 | 0.16 | 0.15 | 90 | 1000.9 |
| 20260506222030 | 61 | 143 | 1.0 | 3.0 | 0.00 | 0.16 | 0.15 | 91 | 1001.0 |
| 20260506221025 | 61 | 144 | 2.0 | 4.0 | 0.00 | 0.16 | 0.15 | 91 | 1000.8 |
| 20260506220020 | 62 | 133 | 3.0 | 9.0 | 0.00 | 0.16 | 0.15 | 92 | 1001.0 |
| 20260506215037 | 62 | 125 | 2.0 | 4.0 | 0.00 | 0.16 | 0.15 | 93 | 1000.9 |
| 20260506214032 | 62 | 149 | 2.0 | 3.0 | 0.00 | 0.16 | 0.15 | 93 | 1001.0 |
| 20260506213027 | 62 | 118 | 1.0 | 3.0 | 0.00 | 0.16 | 0.15 | 93 | 1000.9 |
| 20260506212023 | 62 | 138 | 1.0 | 3.0 | 0.00 | 0.16 | 0.15 | 94 | 1001.1 |
| 20260506211018 | 62 | 143 | 2.0 | 4.0 | 0.00 | 0.16 | 0.15 | 94 | 1001.1 |
| 20260506210053 | 62 | 141 | 2.0 | 4.0 | 0.01 | 0.16 | 0.15 | 95 | 1001.3 |
| 20260506205029 | 61 | 154 | 1.0 | 3.0 | 0.01 | 0.16 | 0.15 | 95 | 1001.3 |
| 20260506204024 | 62 | 147 | 1.0 | 4.0 | 0.03 | 0.16 | 0.15 | 96 | 1001.4 |
| 20260506203019 | 62 | 125 | 2.0 | 4.0 | 0.05 | 0.16 | 0.15 | 96 | 1001.4 |
| 20260506202035 | 62 | 129 | 2.0 | 6.0 | 0.06 | 0.16 | 0.15 | 97 | 1001.5 |
| 20260506201031 | 62 | 135 | 2.0 | 3.0 | 0.06 | 0.16 | 0.15 | 97 | 1001.4 |
| 20260506200027 | 62 | 113 | 2.0 | 4.0 | 0.06 | 0.15 | 0.15 | 97 | 1001.5 |
| 20260506195021 | 62 | 107 | 0.0 | 1.0 | 0.06 | 0.15 | 0.15 | 96 | 1001.8 |
| 20260506194057 | 62 | 110 | 1.0 | 2.0 | 0.04 | 0.13 | 0.13 | 96 | 1001.9 |